createdAt,value
2022-11-27T00:00:58.864Z,57.63
2022-11-27T00:03:26.396Z,51.67
2022-11-27T00:05:57.642Z,45.60
2022-11-27T00:08:27.834Z,53.27
2022-11-27T00:10:54.950Z,56.70
2022-11-27T00:13:22.073Z,45.93
2022-11-27T00:15:49.272Z,62.07
2022-11-27T00:18:16.435Z,53.10
2022-11-27T00:20:43.556Z,47.77
2022-11-27T00:23:10.757Z,48.67
2022-11-27T00:25:37.894Z,50.53
2022-11-27T00:28:05.083Z,63.87
2022-11-27T00:30:32.186Z,49.33
2022-11-27T00:32:59.314Z,55.23
2022-11-27T00:35:26.420Z,49.27
2022-11-27T00:37:53.503Z,61.87
2022-11-27T00:40:20.620Z,56.27
2022-11-27T00:42:47.743Z,37.73
2022-11-27T00:45:14.895Z,48.97
2022-11-27T00:47:42.087Z,51.63
2022-11-27T00:50:09.418Z,52.87
2022-11-27T00:52:36.504Z,37.17
2022-11-27T00:55:03.923Z,45.00
2022-11-27T00:57:31.048Z,50.50
2022-11-27T00:59:58.225Z,40.33
2022-11-27T01:02:25.442Z,42.90
2022-11-27T01:04:52.597Z,42.57
2022-11-27T01:07:19.792Z,44.27
2022-11-27T01:09:46.938Z,48.83
2022-11-27T01:12:14.083Z,44.70
2022-11-27T01:14:41.342Z,48.93
2022-11-27T01:17:08.630Z,54.30
2022-11-27T01:19:35.792Z,45.80
2022-11-27T01:22:02.902Z,41.17
2022-11-27T01:24:30.018Z,43.00
2022-11-27T01:26:57.130Z,50.20
2022-11-27T01:29:24.267Z,46.73
2022-11-27T01:31:51.376Z,41.30
2022-11-27T01:34:19.138Z,39.20
2022-11-27T01:36:46.476Z,36.97
2022-11-27T01:39:18.120Z,56.70
2022-11-27T01:41:45.937Z,54.13
2022-11-27T01:44:24.945Z,58.53
2022-11-27T01:47:10.486Z,52.30
2022-11-27T01:49:39.365Z,44.60
2022-11-27T01:52:12.368Z,42.03
2022-11-27T01:55:02.746Z,38.60
2022-11-27T01:57:31.559Z,38.33
2022-11-27T01:59:59.580Z,31.87
2022-11-27T02:02:26.864Z,33.30
2022-11-27T02:04:54.390Z,35.07
2022-11-27T02:07:21.950Z,37.23
2022-11-27T02:09:49.120Z,38.47
2022-11-27T02:12:24.812Z,33.27
2022-11-27T02:15:14.824Z,30.77
2022-11-27T02:17:47.785Z,34.07
2022-11-27T02:20:33.720Z,30.10
2022-11-27T02:23:19.636Z,28.87
2022-11-27T02:26:02.127Z,41.20
2022-11-27T02:28:35.348Z,32.67
2022-11-27T02:31:28.964Z,31.20
2022-11-27T02:33:59.638Z,29.47
2022-11-27T02:36:30.618Z,28.57
2022-11-27T02:39:05.058Z,46.10
2022-11-27T02:41:42.443Z,33.67
2022-11-27T02:44:10.414Z,28.60
2022-11-27T02:46:38.357Z,29.13
2022-11-27T02:49:07.995Z,33.37
2022-11-27T02:51:39.071Z,33.70
2022-11-27T02:54:08.177Z,33.30
2022-11-27T02:56:35.477Z,32.77
2022-11-27T02:59:04.665Z,38.27
2022-11-27T03:01:37.649Z,30.93
2022-11-27T03:04:08.026Z,34.90
2022-11-27T03:06:40.466Z,32.23
2022-11-27T03:09:09.746Z,31.43
2022-11-27T03:11:37.253Z,35.67
2022-11-27T03:14:06.535Z,30.23
2022-11-27T03:16:49.083Z,31.03
2022-11-27T03:19:36.459Z,30.17
2022-11-27T03:22:04.847Z,31.27
2022-11-27T03:24:33.706Z,30.33
2022-11-27T03:27:01.215Z,33.17
2022-11-27T03:29:31.749Z,31.70
2022-11-27T03:31:58.894Z,32.07
2022-11-27T03:34:26.813Z,32.27
2022-11-27T03:36:53.904Z,28.50
2022-11-27T03:39:21.682Z,30.30
2022-11-27T03:41:48.761Z,30.47
2022-11-27T03:44:34.567Z,29.00
2022-11-27T03:47:17.096Z,32.50
2022-11-27T03:50:10.575Z,29.40
2022-11-27T03:52:43.524Z,28.13
2022-11-27T03:55:16.672Z,31.23
2022-11-27T03:57:59.877Z,30.30
2022-11-27T04:00:27.995Z,29.13
2022-11-27T04:02:55.091Z,37.33
2022-11-27T04:05:22.621Z,31.53
2022-11-27T04:07:49.857Z,31.03
2022-11-27T04:10:17.115Z,31.33
2022-11-27T04:12:44.211Z,30.27
2022-11-27T04:15:11.851Z,27.63
2022-11-27T04:17:39.030Z,28.13
2022-11-27T04:20:06.754Z,29.93
2022-11-27T04:22:33.892Z,27.93
2022-11-27T04:25:01.008Z,33.70
2022-11-27T04:27:28.080Z,29.60
2022-11-27T04:29:55.205Z,32.10
2022-11-27T04:32:22.353Z,29.03
2022-11-27T04:34:49.471Z,29.87
2022-11-27T04:37:16.562Z,27.70
2022-11-27T04:39:43.649Z,25.50
2022-11-27T04:42:10.804Z,26.60
2022-11-27T04:44:38.233Z,26.27
2022-11-27T04:47:05.719Z,24.47
2022-11-27T04:49:32.863Z,24.90
2022-11-27T04:51:59.947Z,26.80
2022-11-27T04:54:27.550Z,25.47
2022-11-27T04:56:54.648Z,27.13
2022-11-27T04:59:22.391Z,39.63
2022-11-27T05:01:49.976Z,25.63
2022-11-27T05:04:17.133Z,27.97
2022-11-27T05:06:44.251Z,26.77
2022-11-27T05:09:11.354Z,36.90
2022-11-27T05:11:38.514Z,30.73
2022-11-27T05:14:22.731Z,38.40
2022-11-27T05:16:51.323Z,34.30
2022-11-27T05:19:19.348Z,34.83
2022-11-27T05:21:47.204Z,40.23
2022-11-27T05:24:14.484Z,41.13
2022-11-27T05:26:42.103Z,39.17
2022-11-27T05:29:09.728Z,31.00
2022-11-27T05:31:37.477Z,34.23
2022-11-27T05:34:05.282Z,39.67
2022-11-27T05:36:32.722Z,30.47
2022-11-27T05:39:00.469Z,27.43
2022-11-27T05:41:27.607Z,37.43
2022-11-27T05:43:54.714Z,35.83
2022-11-27T05:46:23.318Z,50.57
2022-11-27T05:48:50.780Z,36.63
2022-11-27T05:51:18.034Z,39.20
2022-11-27T05:53:45.464Z,52.10
2022-11-27T05:56:13.885Z,34.53
2022-11-27T05:58:41.822Z,42.50
2022-11-27T06:01:09.317Z,41.87
2022-11-27T06:03:38.202Z,38.43
2022-11-27T06:06:09.063Z,39.27
2022-11-27T06:08:39.526Z,45.67
2022-11-27T06:11:10.523Z,33.57
2022-11-27T06:13:38.299Z,36.17
2022-11-27T06:16:09.842Z,45.70
2022-11-27T06:18:36.957Z,32.57
2022-11-27T06:21:08.183Z,50.60
2022-11-27T06:23:35.441Z,54.93
2022-11-27T06:26:14.803Z,51.63
2022-11-27T06:28:42.347Z,47.37
2022-11-27T06:31:17.694Z,28.97
2022-11-27T06:33:46.146Z,53.40
2022-11-27T06:36:13.293Z,23.83
2022-11-27T06:38:40.483Z,43.50
2022-11-27T06:41:08.727Z,34.83
2022-11-27T06:43:36.196Z,35.70
2022-11-27T06:46:04.323Z,49.03
2022-11-27T06:48:31.765Z,49.17
2022-11-27T06:51:03.161Z,42.17
2022-11-27T06:53:30.655Z,39.67
2022-11-27T06:55:58.204Z,46.53
2022-11-27T06:58:30.604Z,44.93
2022-11-27T07:01:02.050Z,34.37
2022-11-27T07:03:29.342Z,46.10
2022-11-27T07:05:59.839Z,40.67
2022-11-27T07:08:26.967Z,25.67
2022-11-27T07:10:54.059Z,39.70
2022-11-27T07:13:21.204Z,29.77
2022-11-27T07:15:48.288Z,39.00
2022-11-27T07:18:15.407Z,43.60
2022-11-27T07:20:42.511Z,39.67
2022-11-27T07:23:09.642Z,34.23
2022-11-27T07:25:38.281Z,31.57
2022-11-27T07:28:05.412Z,30.67
2022-11-27T07:30:32.536Z,35.57
2022-11-27T07:32:59.662Z,29.60
2022-11-27T07:35:26.745Z,22.57
2022-11-27T07:37:53.848Z,30.83
2022-11-27T07:40:35.987Z,37.47
2022-11-27T07:43:03.094Z,41.00
2022-11-27T07:45:30.327Z,32.13
2022-11-27T07:47:57.425Z,37.50
2022-11-27T07:50:24.558Z,32.33
2022-11-27T07:52:51.677Z,45.60
2022-11-27T07:55:18.780Z,34.53
2022-11-27T07:57:45.871Z,25.60
2022-11-27T08:00:13.239Z,39.57
2022-11-27T08:02:40.377Z,30.80
2022-11-27T08:05:12.407Z,26.07
2022-11-27T08:07:40.838Z,24.87
2022-11-27T08:10:08.484Z,45.13
2022-11-27T08:12:35.626Z,24.83
2022-11-27T08:15:04.651Z,27.10
2022-11-27T08:17:31.929Z,30.27
2022-11-27T08:19:59.137Z,33.17
2022-11-27T08:22:26.262Z,31.73
2022-11-27T08:24:53.508Z,35.50
2022-11-27T08:27:20.790Z,27.70
2022-11-27T08:29:47.933Z,39.97
2022-11-27T08:32:15.128Z,31.90
2022-11-27T08:34:42.560Z,35.00
2022-11-27T08:37:09.872Z,20.90
2022-11-27T08:39:36.990Z,25.00
2022-11-27T08:42:04.197Z,21.40
2022-11-27T08:44:31.279Z,26.43
2022-11-27T08:46:58.392Z,18.03
2022-11-27T08:49:25.487Z,22.70
2022-11-27T08:51:52.615Z,23.33
2022-11-27T08:54:19.690Z,23.83
2022-11-27T08:56:46.797Z,19.97
2022-11-27T08:59:13.893Z,19.43
2022-11-27T09:01:41.028Z,19.80
2022-11-27T09:04:08.255Z,22.00
2022-11-27T09:06:36.169Z,19.33
2022-11-27T09:09:05.062Z,22.17
2022-11-27T09:11:32.621Z,19.33
2022-11-27T09:14:00.687Z,21.27
2022-11-27T09:16:29.138Z,20.77
2022-11-27T09:18:56.864Z,20.53
2022-11-27T09:21:27.146Z,21.20
2022-11-27T09:23:55.427Z,22.00
2022-11-27T09:26:25.994Z,20.90
2022-11-27T09:28:53.813Z,18.33
2022-11-27T09:31:21.152Z,17.57
2022-11-27T09:33:48.303Z,17.43
2022-11-27T09:36:16.948Z,18.33
2022-11-27T09:38:44.439Z,18.67
2022-11-27T09:41:11.804Z,19.63
2022-11-27T09:43:45.325Z,19.40
2022-11-27T09:46:17.600Z,20.43
2022-11-27T09:48:46.075Z,19.53
2022-11-27T09:51:21.744Z,19.57
2022-11-27T09:53:51.159Z,17.73
2022-11-27T09:56:19.004Z,15.57
2022-11-27T09:58:51.399Z,15.53
2022-11-27T10:01:26.185Z,14.37
2022-11-27T10:03:57.831Z,14.67
2022-11-27T10:06:34.027Z,15.07
2022-11-27T10:09:03.956Z,14.80
2022-11-27T10:11:37.136Z,13.60
2022-11-27T10:14:04.243Z,12.87
2022-11-27T10:16:42.916Z,13.37
2022-11-27T10:19:11.523Z,13.80
2022-11-27T10:21:50.457Z,14.87
2022-11-27T10:24:37.508Z,14.67
2022-11-27T10:27:13.032Z,14.07
2022-11-27T10:29:47.395Z,14.70
2022-11-27T10:32:52.836Z,15.03
2022-11-27T10:35:11.820Z,13.57
2022-11-27T10:37:58.146Z,14.13
2022-11-27T10:40:32.857Z,15.67
2022-11-27T10:43:11.163Z,14.17
2022-11-27T10:45:45.106Z,14.87
2022-11-27T10:48:13.261Z,14.40
2022-11-27T10:50:41.585Z,12.93
2022-11-27T10:53:23.087Z,13.87
2022-11-27T10:55:59.423Z,14.50
2022-11-27T10:58:32.703Z,13.73
2022-11-27T11:01:08.016Z,14.40
2022-11-27T11:03:35.574Z,15.63
2022-11-27T11:06:23.982Z,15.17
2022-11-27T11:09:05.893Z,15.73
2022-11-27T11:11:33.183Z,16.17
2022-11-27T11:14:00.355Z,15.57
2022-11-27T11:16:34.761Z,15.87
2022-11-27T11:19:02.767Z,15.97
2022-11-27T11:21:32.223Z,15.90
2022-11-27T11:24:01.129Z,15.60
2022-11-27T11:26:35.521Z,14.87
2022-11-27T11:29:05.836Z,14.97
2022-11-27T11:31:35.523Z,15.33
2022-11-27T11:34:04.545Z,15.20
2022-11-27T11:36:31.770Z,15.57
2022-11-27T11:38:59.080Z,14.67
2022-11-27T11:41:36.485Z,14.57
2022-11-27T11:44:04.385Z,14.87
2022-11-27T11:46:32.902Z,15.57
2022-11-27T11:49:08.519Z,14.67
2022-11-27T11:51:38.436Z,15.13
2022-11-27T11:54:14.396Z,14.00
2022-11-27T11:56:44.888Z,13.43
2022-11-27T11:59:11.997Z,13.47
2022-11-27T12:01:39.122Z,13.33
2022-11-27T12:04:25.194Z,13.00
2022-11-27T12:07:10.273Z,13.50
2022-11-27T12:09:37.516Z,12.73
2022-11-27T12:12:16.584Z,13.60
2022-11-27T12:14:43.811Z,14.30
2022-11-27T12:17:23.094Z,13.13
2022-11-27T12:20:03.720Z,12.77
2022-11-27T12:22:37.638Z,12.60
2022-11-27T12:25:07.503Z,12.13
2022-11-27T12:27:34.574Z,11.83
2022-11-27T12:30:21.490Z,11.47
2022-11-27T12:32:55.035Z,12.50
2022-11-27T12:35:37.571Z,12.97
2022-11-27T12:38:30.958Z,11.37
2022-11-27T12:41:09.555Z,12.07
2022-11-27T12:43:40.196Z,11.00
2022-11-27T12:46:12.715Z,8.50
2022-11-27T12:48:42.536Z,10.73
2022-11-27T12:51:13.031Z,10.40
2022-11-27T12:53:42.976Z,10.30
2022-11-27T12:56:13.961Z,10.03
2022-11-27T12:58:44.103Z,8.10
2022-11-27T13:01:15.642Z,9.60
2022-11-27T13:03:47.063Z,8.77
2022-11-27T13:06:15.421Z,9.93
2022-11-27T13:08:52.453Z,9.47
2022-11-27T13:11:20.967Z,8.87
2022-11-27T13:13:50.130Z,8.77
2022-11-27T13:16:21.720Z,9.07
2022-11-27T13:19:06.482Z,8.57
2022-11-27T13:21:35.080Z,8.13
2022-11-27T13:24:02.714Z,8.07
2022-11-27T13:26:37.316Z,8.57
2022-11-27T13:29:06.892Z,8.73
2022-11-27T13:31:37.611Z,8.80
2022-11-27T13:34:25.062Z,11.53
2022-11-27T13:36:56.623Z,9.33
2022-11-27T13:39:23.764Z,7.47
2022-11-27T13:42:00.057Z,9.03
2022-11-27T13:44:28.600Z,9.03
2022-11-27T13:46:58.930Z,7.57
2022-11-27T13:49:28.589Z,8.43
2022-11-27T13:52:10.507Z,8.80
2022-11-27T13:54:37.667Z,8.63
2022-11-27T13:57:30.972Z,8.03
2022-11-27T14:00:06.765Z,8.00
2022-11-27T14:03:00.436Z,8.87
2022-11-27T14:05:38.461Z,8.30
2022-11-27T14:08:16.507Z,8.73
2022-11-27T14:10:49.596Z,7.70
2022-11-27T14:13:17.198Z,8.50
2022-11-27T14:15:44.445Z,8.37
2022-11-27T14:18:14.663Z,6.70
2022-11-27T14:20:53.039Z,9.27
2022-11-27T14:23:29.050Z,9.40
2022-11-27T14:26:11.872Z,8.80
2022-11-27T14:28:42.979Z,9.10
2022-11-27T14:31:25.477Z,9.17
2022-11-27T14:34:14.332Z,10.67
2022-11-27T14:36:39.713Z,11.13
2022-11-27T14:39:06.880Z,10.10
2022-11-27T14:41:34.158Z,10.40
2022-11-27T14:44:01.958Z,9.77
2022-11-27T14:46:29.333Z,8.37
2022-11-27T14:48:57.085Z,9.33
2022-11-27T14:51:35.176Z,9.17
2022-11-27T14:54:08.023Z,9.13
2022-11-27T14:56:36.917Z,9.80
2022-11-27T14:59:04.814Z,9.93
2022-11-27T15:01:33.343Z,9.23
2022-11-27T15:04:02.461Z,10.20
2022-11-27T15:06:32.807Z,9.90
2022-11-27T15:09:29.685Z,10.07
2022-11-27T15:11:56.219Z,10.70
2022-11-27T15:14:24.656Z,10.47
2022-11-27T15:16:52.473Z,9.07
2022-11-27T15:19:46.034Z,11.13
2022-11-27T15:22:17.115Z,11.90
2022-11-27T15:24:44.248Z,11.40
2022-11-27T15:27:23.520Z,11.73
2022-11-27T15:29:50.615Z,11.43
2022-11-27T15:32:23.231Z,11.40
2022-11-27T15:34:51.974Z,12.77
2022-11-27T15:37:25.341Z,12.47
2022-11-27T15:39:53.548Z,11.83
2022-11-27T15:42:21.467Z,10.47
2022-11-27T15:44:53.303Z,13.10
2022-11-27T15:47:24.684Z,12.53
2022-11-27T15:49:51.853Z,13.50
2022-11-27T15:52:19.087Z,12.70
2022-11-27T15:54:46.232Z,13.10
2022-11-27T15:57:13.490Z,12.60
2022-11-27T15:59:40.841Z,12.67
2022-11-27T16:02:09.501Z,11.83
2022-11-27T16:04:39.496Z,12.93
2022-11-27T16:07:08.276Z,13.17
2022-11-27T16:09:36.228Z,13.17
2022-11-27T16:12:03.893Z,12.63
2022-11-27T16:14:31.054Z,11.57
2022-11-27T16:16:58.218Z,12.83
2022-11-27T16:19:25.479Z,12.80
2022-11-27T16:21:52.759Z,12.33
2022-11-27T16:24:19.905Z,11.20
2022-11-27T16:26:47.032Z,12.10
2022-11-27T16:29:14.165Z,12.20
2022-11-27T16:31:41.616Z,11.77
2022-11-27T16:34:08.814Z,10.70
2022-11-27T16:36:36.051Z,11.03
2022-11-27T16:39:03.152Z,11.57
2022-11-27T16:41:30.286Z,11.40
2022-11-27T16:43:57.608Z,11.93
2022-11-27T16:46:26.455Z,10.90
2022-11-27T16:48:54.376Z,12.33
2022-11-27T16:51:23.536Z,12.47
2022-11-27T16:53:52.133Z,12.70
2022-11-27T16:56:21.195Z,12.53
2022-11-27T16:58:48.528Z,13.00
2022-11-27T17:01:17.146Z,11.83
2022-11-27T17:03:44.410Z,12.50
2022-11-27T17:06:13.484Z,13.10
2022-11-27T17:08:40.855Z,12.40
2022-11-27T17:11:20.264Z,12.63
2022-11-27T17:13:48.122Z,12.73
2022-11-27T17:16:15.766Z,12.37
2022-11-27T17:18:45.529Z,12.57
2022-11-27T17:21:21.265Z,12.30
2022-11-27T17:23:48.389Z,13.33
2022-11-27T17:26:16.560Z,14.10
2022-11-27T17:28:43.668Z,14.50
2022-11-27T17:31:11.757Z,15.30
2022-11-27T17:33:39.138Z,16.43
2022-11-27T17:36:06.815Z,16.03
2022-11-27T17:38:33.946Z,18.07
2022-11-27T17:41:01.744Z,13.83
2022-11-27T17:43:30.415Z,13.93
2022-11-27T17:45:58.174Z,11.90
2022-11-27T17:48:25.564Z,14.80
2022-11-27T17:50:52.859Z,15.00
2022-11-27T17:53:20.260Z,14.10
2022-11-27T17:55:47.385Z,14.07
2022-11-27T17:58:14.498Z,13.20
2022-11-27T18:00:42.257Z,13.83
2022-11-27T18:03:09.468Z,14.40
2022-11-27T18:05:37.648Z,14.27
2022-11-27T18:08:05.528Z,13.70
2022-11-27T18:10:35.738Z,12.30
2022-11-27T18:13:02.866Z,13.90
2022-11-27T18:15:29.994Z,13.87
2022-11-27T18:17:58.276Z,13.73
2022-11-27T18:20:25.446Z,13.57
2022-11-27T18:22:52.601Z,13.07
2022-11-27T18:25:19.736Z,13.87
2022-11-27T18:27:46.851Z,13.40
2022-11-27T18:30:14.572Z,12.57
2022-11-27T18:32:41.647Z,15.83
2022-11-27T18:35:09.006Z,16.17
2022-11-27T18:37:38.402Z,16.07
2022-11-27T18:40:09.249Z,15.50
2022-11-27T18:42:36.458Z,15.53
2022-11-27T18:45:03.864Z,15.60
2022-11-27T18:47:32.140Z,24.17
2022-11-27T18:50:01.416Z,19.17
2022-11-27T18:52:28.704Z,16.70
2022-11-27T18:54:55.816Z,20.20
2022-11-27T18:57:22.979Z,17.67
2022-11-27T18:59:50.148Z,15.40
2022-11-27T19:02:17.325Z,14.63
2022-11-27T19:04:44.918Z,12.83
2022-11-27T19:07:12.380Z,14.20
2022-11-27T19:09:39.903Z,14.77
2022-11-27T19:12:07.187Z,15.43
2022-11-27T19:14:34.326Z,16.53
2022-11-27T19:17:01.480Z,17.57
2022-11-27T19:22:19.967Z,15.87
2022-11-27T19:24:47.082Z,15.13
2022-11-27T19:27:14.201Z,14.07
2022-11-27T19:29:41.743Z,15.53
2022-11-27T19:32:09.076Z,16.47
2022-11-27T19:34:36.281Z,17.83
2022-11-27T19:37:03.388Z,15.67
2022-11-27T19:39:30.492Z,14.87
2022-11-27T19:41:58.025Z,14.93
2022-11-27T19:44:25.596Z,14.70
2022-11-27T19:46:52.803Z,14.77
2022-11-27T19:49:21.302Z,14.97
2022-11-27T19:51:49.687Z,14.43
2022-11-27T19:54:19.213Z,15.60
2022-11-27T19:56:46.406Z,15.17
2022-11-27T19:59:13.559Z,13.63
2022-11-27T20:01:41.372Z,14.17
2022-11-27T20:04:10.367Z,14.50
2022-11-27T20:06:37.491Z,13.73
2022-11-27T20:09:06.024Z,14.77
2022-11-27T20:11:35.138Z,14.77
2022-11-27T20:14:04.085Z,15.77
2022-11-27T20:16:31.456Z,15.90
2022-11-27T20:18:58.715Z,16.27
2022-11-27T20:21:26.490Z,15.40
2022-11-27T20:23:54.858Z,15.30
2022-11-27T20:26:23.979Z,15.40
2022-11-27T20:28:51.981Z,15.63
2022-11-27T20:31:22.295Z,15.57
2022-11-27T20:33:49.530Z,16.30
2022-11-27T20:36:18.543Z,15.00
2022-11-27T20:38:45.723Z,15.53
2022-11-27T20:41:15.405Z,16.33
2022-11-27T20:43:43.176Z,15.73
2022-11-27T20:46:12.113Z,16.53
2022-11-27T20:48:39.429Z,15.57
2022-11-27T20:51:10.610Z,17.23
2022-11-27T20:53:37.700Z,17.67
2022-11-27T20:56:05.673Z,16.57
2022-11-27T20:58:33.049Z,17.23
2022-11-27T21:01:00.270Z,17.70
2022-11-27T21:03:28.261Z,17.17
2022-11-27T21:05:55.522Z,16.20
2022-11-27T21:08:22.924Z,15.93
2022-11-27T21:10:50.582Z,16.77
2022-11-27T21:13:17.712Z,16.83
2022-11-27T21:15:48.511Z,16.77
2022-11-27T21:18:15.827Z,17.40
2022-11-27T21:20:43.150Z,17.23
2022-11-27T21:23:10.319Z,16.73
2022-11-27T21:25:38.923Z,17.30
2022-11-27T21:28:06.055Z,18.40
2022-11-27T21:30:33.238Z,17.00
2022-11-27T21:33:00.377Z,17.03
2022-11-27T21:35:31.430Z,16.60
2022-11-27T21:37:59.872Z,17.17
2022-11-27T21:40:27.116Z,17.20
2022-11-27T21:42:54.433Z,16.63
2022-11-27T21:45:21.532Z,16.27
2022-11-27T21:47:48.698Z,16.97
2022-11-27T21:50:16.432Z,18.10
2022-11-27T21:52:43.566Z,17.13
2022-11-27T21:55:12.349Z,16.17
2022-11-27T21:57:40.166Z,16.73
2022-11-27T22:00:07.643Z,16.37
2022-11-27T22:02:34.811Z,16.73
2022-11-27T22:05:01.956Z,16.33
2022-11-27T22:07:29.174Z,15.70
2022-11-27T22:09:56.332Z,15.77
2022-11-27T22:12:23.501Z,16.97
2022-11-27T22:14:50.913Z,16.60
2022-11-27T22:17:19.168Z,16.90
2022-11-27T22:19:46.376Z,16.73
2022-11-27T22:22:13.510Z,16.43
2022-11-27T22:24:40.837Z,16.67
2022-11-27T22:27:08.294Z,17.17
2022-11-27T22:29:35.425Z,16.87
2022-11-27T22:32:02.536Z,16.83
2022-11-27T22:34:29.639Z,16.77
2022-11-27T22:36:56.755Z,17.43
2022-11-27T22:39:23.887Z,16.87
2022-11-27T22:41:51.000Z,16.70
2022-11-27T22:44:19.002Z,16.27
2022-11-27T22:46:46.280Z,17.27
2022-11-27T22:49:14.365Z,17.37
2022-11-27T22:51:41.830Z,19.33
2022-11-27T22:54:11.365Z,17.93
2022-11-27T22:56:38.535Z,17.37
2022-11-27T22:59:30.996Z,20.00
2022-11-27T23:01:54.249Z,19.93
2022-11-27T23:04:21.443Z,20.00
2022-11-27T23:06:48.840Z,18.90
2022-11-27T23:09:16.342Z,20.77
2022-11-27T23:11:43.438Z,19.60
2022-11-27T23:14:10.570Z,19.70
2022-11-27T23:16:38.068Z,19.90
2022-11-27T23:19:05.274Z,20.07
2022-11-27T23:21:35.234Z,19.93
2022-11-27T23:24:02.350Z,19.57
2022-11-27T23:26:29.539Z,19.40
2022-11-27T23:28:56.917Z,19.30
2022-11-27T23:31:30.831Z,19.90
2022-11-27T23:33:59.264Z,19.47
2022-11-27T23:36:26.546Z,19.03
2022-11-27T23:38:53.824Z,19.33
2022-11-27T23:41:22.265Z,18.03
2022-11-27T23:43:49.896Z,19.13
2022-11-27T23:46:17.836Z,19.17
2022-11-27T23:48:45.066Z,19.03
2022-11-27T23:51:13.591Z,18.97
2022-11-27T23:53:40.725Z,18.97
2022-11-27T23:56:18.634Z,19.40
2022-11-27T23:58:47.576Z,19.77
